Copper Cliff, Canada
Current Conditions -  °F | °C
As of 12:00 PM on Friday 24 Oct 2014 (Local Time) from CYSB Reporting Station
Scattered Clouds Scattered Clouds  
Wind Chill: 44°   Ceiling: Unl
Heat Index: 46°   Visibility: 20mi
Dew Point: 36°   Wind: 5mph
Humidity: 66%   Direction: 240°WSW
Pressure: 29.99"   Gusts: NA
Location:  46.47°N, 81.07°W
Report Text: CYSB 241600Z 24004KT 20SM SCT220 08/02 A2999 RMK CC4 SLP165
Loading
Personal Weather Stations






























Interactive Weather Map
Tropical Storm Tracking
New forecast layout! Learn more

10-Day Weather Forecast

Advertisements
Track Severe Weather on mobile